createdAt,value
2019-05-18T00:00:50.465Z,11.87
2019-05-18T00:03:18.854Z,11.84
2019-05-18T00:05:47.314Z,11.89
2019-05-18T00:08:15.733Z,11.90
2019-05-18T00:10:44.135Z,11.88
2019-05-18T00:13:12.519Z,11.82
2019-05-18T00:15:40.935Z,11.75
2019-05-18T00:18:09.338Z,11.92
2019-05-18T00:20:37.739Z,12.01
2019-05-18T00:23:06.221Z,12.03
2019-05-18T00:25:36.057Z,12.13
2019-05-18T00:28:04.526Z,12.20
2019-05-18T00:30:33.011Z,12.30
2019-05-18T00:33:01.412Z,12.42
2019-05-18T00:35:29.807Z,12.38
2019-05-18T00:37:58.234Z,12.45
2019-05-18T00:40:26.622Z,12.46
2019-05-18T00:42:55.014Z,12.41
2019-05-18T00:45:23.767Z,12.37
2019-05-18T00:47:52.158Z,12.44
2019-05-18T00:50:20.619Z,12.56
2019-05-18T00:52:49.031Z,12.61
2019-05-18T00:55:17.425Z,12.59
2019-05-18T00:57:45.818Z,12.52
2019-05-18T01:00:15.270Z,12.40
2019-05-18T01:02:43.664Z,12.28
2019-05-18T01:05:12.232Z,12.16
2019-05-18T01:07:40.848Z,12.07
2019-05-18T01:10:09.685Z,12.02
2019-05-18T01:12:38.087Z,11.92
2019-05-18T01:15:08.784Z,11.84
2019-05-18T01:17:37.234Z,11.76
2019-05-18T01:20:06.403Z,11.69
2019-05-18T01:22:35.015Z,11.61
2019-05-18T01:25:03.547Z,11.54
2019-05-18T01:27:31.941Z,11.52
2019-05-18T01:30:00.373Z,11.59
2019-05-18T01:32:29.030Z,11.72
2019-05-18T01:34:57.423Z,11.83
2019-05-18T01:37:25.910Z,11.86
2019-05-18T01:39:54.575Z,11.98
2019-05-18T01:42:22.959Z,12.03
2019-05-18T01:44:51.756Z,12.04
2019-05-18T01:47:20.151Z,12.07
2019-05-18T01:49:48.572Z,12.21
2019-05-18T01:52:17.040Z,12.36
2019-05-18T01:54:45.431Z,12.52
2019-05-18T01:57:13.897Z,12.58
2019-05-18T01:59:42.386Z,12.59
2019-05-18T02:02:10.784Z,12.56
2019-05-18T02:04:39.418Z,12.44
2019-05-18T02:07:07.839Z,12.27
2019-05-18T02:09:36.241Z,12.11
2019-05-18T02:12:04.622Z,11.96
2019-05-18T02:14:33.035Z,11.87
2019-05-18T02:17:01.464Z,11.83
2019-05-18T02:19:29.894Z,11.83
2019-05-18T02:21:58.385Z,11.84
2019-05-18T02:24:26.776Z,11.90
2019-05-18T02:26:55.173Z,11.92
2019-05-18T02:29:23.712Z,11.96
2019-05-18T02:31:52.115Z,11.97
2019-05-18T02:34:20.535Z,11.96
2019-05-18T02:36:48.915Z,11.93
2019-05-18T02:39:17.307Z,11.90
2019-05-18T02:41:45.700Z,11.88
2019-05-18T02:44:14.191Z,11.87
2019-05-18T02:46:42.598Z,11.80
2019-05-18T02:49:11.289Z,11.78
2019-05-18T02:51:40.066Z,11.74
2019-05-18T02:54:08.534Z,11.68
2019-05-18T02:56:37.076Z,11.65
2019-05-18T02:59:05.496Z,11.62
2019-05-18T03:01:33.892Z,11.62
2019-05-18T03:04:02.282Z,11.61
2019-05-18T03:06:31.165Z,11.61
2019-05-18T03:08:59.561Z,11.56
2019-05-18T03:11:27.952Z,11.54
2019-05-18T03:13:56.576Z,11.53
2019-05-18T03:16:24.965Z,11.52
2019-05-18T03:19:07.593Z,11.54
2019-05-18T03:21:23.876Z,11.54
2019-05-18T03:23:52.262Z,11.50
2019-05-18T03:26:20.658Z,11.47
2019-05-18T03:28:49.147Z,11.44
2019-05-18T03:31:17.803Z,11.42
2019-05-18T03:33:46.198Z,11.37
2019-05-18T03:36:14.694Z,11.36
2019-05-18T03:38:43.079Z,11.39
2019-05-18T03:41:11.472Z,11.43
2019-05-18T03:43:39.962Z,11.44
2019-05-18T03:46:08.351Z,11.43
2019-05-18T03:48:36.745Z,11.46
2019-05-18T03:51:06.179Z,11.53
2019-05-18T03:53:34.575Z,11.53
2019-05-18T03:56:03.004Z,11.47
2019-05-18T03:58:31.405Z,11.41
2019-05-18T04:00:59.807Z,11.40
2019-05-18T04:03:28.206Z,11.37
2019-05-18T04:05:56.694Z,11.35
2019-05-18T04:08:25.076Z,11.44
2019-05-18T04:10:53.636Z,11.61
2019-05-18T04:13:22.063Z,11.64
2019-05-18T04:15:50.465Z,11.68
2019-05-18T04:18:18.852Z,11.70
2019-05-18T04:20:47.263Z,11.68
2019-05-18T04:23:15.652Z,11.70
2019-05-18T04:25:44.293Z,11.76
2019-05-18T04:28:12.749Z,11.80
2019-05-18T04:30:41.151Z,11.81
2019-05-18T04:33:09.555Z,11.83
2019-05-18T04:35:37.969Z,11.83
2019-05-18T04:38:06.362Z,11.83
2019-05-18T04:40:34.758Z,11.81
2019-05-18T04:43:03.259Z,11.77
2019-05-18T04:45:31.670Z,11.76
2019-05-18T04:48:00.058Z,11.75
2019-05-18T04:50:28.492Z,11.78
2019-05-18T04:52:56.899Z,11.80
2019-05-18T04:55:25.548Z,11.81
2019-05-18T04:57:53.975Z,11.81
2019-05-18T05:00:22.506Z,11.81
2019-05-18T05:02:50.835Z,11.83
2019-05-18T05:05:19.332Z,11.87
2019-05-18T05:07:47.727Z,11.89
2019-05-18T05:10:16.560Z,11.92
2019-05-18T05:12:45.045Z,11.93
2019-05-18T05:15:13.674Z,11.91
2019-05-18T05:17:42.067Z,11.93
2019-05-18T05:20:19.124Z,11.97
2019-05-18T05:22:40.682Z,11.99
2019-05-18T05:25:09.169Z,12.02
2019-05-18T05:27:37.920Z,12.07
2019-05-18T05:30:07.560Z,12.16
2019-05-18T05:32:35.964Z,12.26
2019-05-18T05:35:06.036Z,12.39
2019-05-18T05:37:34.711Z,12.61
2019-05-18T05:40:03.922Z,12.77
2019-05-18T05:42:32.428Z,12.91
2019-05-18T05:45:00.828Z,12.96
2019-05-18T05:47:29.234Z,12.95
2019-05-18T05:49:57.654Z,13.00
2019-05-18T05:52:26.044Z,13.08
2019-05-18T05:54:54.452Z,13.18
2019-05-18T05:57:22.940Z,13.31
2019-05-18T05:59:51.660Z,13.44
2019-05-18T06:02:20.061Z,13.51
2019-05-18T06:04:48.589Z,13.54
2019-05-18T06:07:17.299Z,13.60
2019-05-18T06:09:45.714Z,13.68
2019-05-18T06:12:14.498Z,13.76
2019-05-18T06:14:43.275Z,13.85
2019-05-18T06:17:11.974Z,13.96
2019-05-18T06:19:40.750Z,14.07
2019-05-18T06:22:09.154Z,14.09
2019-05-18T06:24:37.573Z,14.11
2019-05-18T06:27:06.315Z,14.09
2019-05-18T06:29:34.733Z,14.07
2019-05-18T06:32:03.119Z,14.07
2019-05-18T06:34:31.634Z,14.13
2019-05-18T06:37:00.029Z,14.19
2019-05-18T06:39:28.441Z,14.32
2019-05-18T06:41:56.966Z,14.37
2019-05-18T06:44:25.366Z,14.41
2019-05-18T06:46:53.768Z,14.46
2019-05-18T06:49:22.201Z,14.57
2019-05-18T06:51:50.767Z,14.65
2019-05-18T06:54:19.314Z,14.75
2019-05-18T06:56:48.701Z,14.83
2019-05-18T06:59:17.243Z,14.91
2019-05-18T07:01:45.643Z,14.94
2019-05-18T07:04:14.065Z,14.95
2019-05-18T07:06:42.474Z,15.13
2019-05-18T07:09:14.019Z,15.29
2019-05-18T07:11:41.121Z,15.38
2019-05-18T07:14:09.569Z,15.44
2019-05-18T07:16:38.741Z,15.52
2019-05-18T07:19:07.280Z,15.67
2019-05-18T07:21:35.681Z,15.81
2019-05-18T07:24:04.253Z,15.98
2019-05-18T07:26:32.979Z,16.08
2019-05-18T07:29:05.543Z,16.11
2019-05-18T07:31:31.908Z,16.25
2019-05-18T07:34:00.329Z,16.30
2019-05-18T07:36:28.732Z,16.41
2019-05-18T07:38:57.119Z,16.42
2019-05-18T07:41:25.624Z,16.37
2019-05-18T07:43:54.024Z,16.37
2019-05-18T07:46:22.448Z,16.36
2019-05-18T07:48:51.092Z,16.19
2019-05-18T07:51:19.490Z,16.08
2019-05-18T07:53:47.973Z,15.95
2019-05-18T07:56:16.607Z,15.88
2019-05-18T07:58:45.003Z,15.89
2019-05-18T08:01:13.397Z,16.00
2019-05-18T08:03:41.807Z,16.20
2019-05-18T08:06:10.366Z,16.41
2019-05-18T08:08:39.087Z,16.63
2019-05-18T08:11:07.781Z,16.79
2019-05-18T08:13:36.164Z,16.95
2019-05-18T08:16:04.711Z,17.12
2019-05-18T08:18:33.124Z,17.14
2019-05-18T08:21:01.514Z,17.28
2019-05-18T08:23:29.907Z,17.41
2019-05-18T08:25:58.400Z,17.57
2019-05-18T08:28:26.793Z,17.93
2019-05-18T08:30:55.190Z,18.10
2019-05-18T08:33:23.611Z,18.15
2019-05-18T08:35:52.036Z,18.22
2019-05-18T08:38:20.416Z,17.89
2019-05-18T08:40:49.277Z,17.94
2019-05-18T08:43:17.672Z,18.06
2019-05-18T08:45:46.077Z,18.28
2019-05-18T08:48:14.505Z,18.41
2019-05-18T08:50:42.912Z,18.48
2019-05-18T08:53:11.306Z,18.23
2019-05-18T08:55:39.717Z,18.14
2019-05-18T08:58:08.114Z,17.90
2019-05-18T09:00:36.770Z,17.67
2019-05-18T09:03:05.299Z,17.64
2019-05-18T09:05:33.708Z,17.78
2019-05-18T09:08:02.093Z,17.72
2019-05-18T09:10:30.517Z,17.88
2019-05-18T09:12:59.174Z,18.00
2019-05-18T09:15:27.565Z,18.29
2019-05-18T09:17:56.238Z,18.17
2019-05-18T09:20:24.651Z,18.41
2019-05-18T09:22:53.021Z,18.64
2019-05-18T09:25:21.505Z,18.69
2019-05-18T09:27:49.903Z,18.69
2019-05-18T09:30:18.630Z,18.82
2019-05-18T09:32:47.430Z,19.17
2019-05-18T09:35:16.165Z,19.54
2019-05-18T09:37:44.559Z,19.77
2019-05-18T09:40:13.047Z,19.97
2019-05-18T09:42:42.474Z,20.33
2019-05-18T09:45:11.913Z,20.51
2019-05-18T09:47:40.670Z,20.47
2019-05-18T09:50:09.703Z,20.79
2019-05-18T09:52:46.355Z,20.82
2019-05-18T09:55:08.925Z,20.93
2019-05-18T09:57:37.315Z,20.85
2019-05-18T10:00:11.212Z,20.98
2019-05-18T10:02:39.839Z,20.92
2019-05-18T10:05:08.536Z,20.94
2019-05-18T10:07:36.922Z,20.85
2019-05-18T10:10:08.004Z,20.92
2019-05-18T10:12:36.400Z,20.47
2019-05-18T10:15:07.383Z,19.82
2019-05-18T10:17:35.886Z,19.98
2019-05-18T10:20:10.044Z,20.18
2019-05-18T10:22:51.177Z,20.09
2019-05-18T10:25:09.702Z,20.18
2019-05-18T10:27:38.073Z,20.35
2019-05-18T10:30:09.174Z,20.35
2019-05-18T10:32:37.584Z,20.63
2019-05-18T10:35:07.516Z,20.74
2019-05-18T10:37:35.908Z,20.69
2019-05-18T10:40:07.707Z,20.77
2019-05-18T10:42:36.094Z,20.79
2019-05-18T10:45:06.383Z,21.00
2019-05-18T10:47:34.813Z,21.16
2019-05-18T10:50:03.287Z,20.88
2019-05-18T10:52:31.672Z,20.83
2019-05-18T10:55:00.094Z,20.67
2019-05-18T10:57:28.486Z,20.69
2019-05-18T10:59:56.879Z,20.70
2019-05-18T11:02:25.599Z,20.61
2019-05-18T11:04:53.993Z,20.65
2019-05-18T11:07:22.404Z,20.69
2019-05-18T11:09:50.828Z,20.57
2019-05-18T11:12:19.223Z,20.51
2019-05-18T11:14:47.628Z,20.47
2019-05-18T11:17:16.050Z,20.34
2019-05-18T11:19:44.760Z,20.34
2019-05-18T11:22:13.148Z,20.33
2019-05-18T11:24:41.552Z,20.26
2019-05-18T11:27:09.955Z,20.05
2019-05-18T11:29:38.347Z,19.86
2019-05-18T11:32:07.188Z,19.66
2019-05-18T11:34:35.582Z,19.55
2019-05-18T11:37:03.982Z,19.37
2019-05-18T11:39:32.412Z,19.31
2019-05-18T11:42:00.808Z,19.37
2019-05-18T11:44:29.464Z,19.48
2019-05-18T11:46:57.889Z,19.53
2019-05-18T11:49:29.040Z,19.48
2019-05-18T11:51:56.405Z,19.52
2019-05-18T11:54:24.818Z,19.48
2019-05-18T11:56:53.235Z,19.54
2019-05-18T11:59:21.603Z,19.53
2019-05-18T12:01:50.181Z,19.58
2019-05-18T12:04:18.581Z,19.41
2019-05-18T12:06:46.968Z,19.65
2019-05-18T12:09:15.392Z,19.74
2019-05-18T12:11:43.781Z,19.85
2019-05-18T12:14:12.181Z,20.10
2019-05-18T12:16:40.614Z,20.37
2019-05-18T12:19:09.021Z,20.45
2019-05-18T12:21:37.416Z,20.52
2019-05-18T12:24:14.633Z,20.67
2019-05-18T12:26:36.039Z,20.95
2019-05-18T12:29:04.431Z,21.36
2019-05-18T12:31:32.825Z,21.77
2019-05-18T12:34:01.259Z,21.88
2019-05-18T12:36:29.648Z,21.81
2019-05-18T12:38:58.038Z,21.72
2019-05-18T12:41:29.263Z,21.69
2019-05-18T12:43:57.789Z,21.81
2019-05-18T12:46:26.250Z,21.97
2019-05-18T12:48:54.785Z,22.23
2019-05-18T12:51:23.346Z,22.59
2019-05-18T12:53:51.765Z,22.88
2019-05-18T12:56:20.320Z,23.21
2019-05-18T12:58:48.730Z,23.28
2019-05-18T13:01:17.125Z,23.38
2019-05-18T13:03:45.540Z,23.43
2019-05-18T13:06:14.606Z,23.54
2019-05-18T13:08:43.024Z,23.55
2019-05-18T13:11:11.420Z,23.58
2019-05-18T13:13:39.812Z,23.64
2019-05-18T13:16:08.224Z,23.59
2019-05-18T13:18:36.685Z,23.36
2019-05-18T13:21:05.082Z,23.28
2019-05-18T13:23:33.501Z,23.29
2019-05-18T13:26:01.883Z,23.32
2019-05-18T13:28:30.273Z,23.29
2019-05-18T13:30:58.692Z,22.97
2019-05-18T13:33:27.088Z,22.93
2019-05-18T13:35:55.478Z,22.94
2019-05-18T13:38:23.907Z,23.09
2019-05-18T13:40:52.291Z,23.27
2019-05-18T13:43:20.676Z,23.37
2019-05-18T13:45:49.109Z,23.22
2019-05-18T13:48:17.492Z,23.45
2019-05-18T13:50:45.891Z,23.62
2019-05-18T13:53:14.305Z,23.64
2019-05-18T13:55:42.699Z,23.80
2019-05-18T13:58:11.408Z,23.92
2019-05-18T14:00:40.300Z,23.95
2019-05-18T14:03:09.046Z,24.10
2019-05-18T14:05:37.438Z,24.28
2019-05-18T14:08:05.859Z,23.90
2019-05-18T14:10:34.644Z,23.21
2019-05-18T14:13:03.034Z,22.46
2019-05-18T14:15:31.523Z,22.14
2019-05-18T14:18:00.171Z,21.82
2019-05-18T14:20:28.873Z,21.53
2019-05-18T14:22:57.362Z,21.46
2019-05-18T14:25:25.745Z,21.39
2019-05-18T14:27:54.139Z,21.38
2019-05-18T14:30:23.776Z,21.38
2019-05-18T14:32:52.163Z,21.35
2019-05-18T14:35:20.551Z,21.36
2019-05-18T14:37:48.968Z,21.38
2019-05-18T14:40:17.430Z,21.50
2019-05-18T14:42:45.831Z,21.26
2019-05-18T14:45:14.501Z,20.78
2019-05-18T14:47:42.898Z,20.53
2019-05-18T14:50:11.529Z,20.25
2019-05-18T14:52:39.957Z,20.16
2019-05-18T14:55:09.698Z,20.23
2019-05-18T14:57:38.089Z,20.38
2019-05-18T15:00:07.750Z,20.48
2019-05-18T15:02:36.244Z,20.40
2019-05-18T15:05:07.379Z,20.37
2019-05-18T15:07:35.798Z,20.27
2019-05-18T15:10:06.727Z,20.03
2019-05-18T15:12:35.119Z,19.72
2019-05-18T15:15:04.813Z,19.57
2019-05-18T15:17:33.196Z,19.41
2019-05-18T15:20:01.601Z,19.37
2019-05-18T15:22:30.017Z,19.32
2019-05-18T15:24:58.411Z,19.25
2019-05-18T15:27:26.810Z,19.18
2019-05-18T15:29:55.529Z,19.06
2019-05-18T15:32:23.928Z,18.86
2019-05-18T15:34:52.592Z,18.82
2019-05-18T15:37:21.040Z,18.76
2019-05-18T15:39:49.412Z,18.53
2019-05-18T15:42:17.816Z,18.47
2019-05-18T15:44:46.250Z,18.35
2019-05-18T15:47:14.634Z,18.24
2019-05-18T15:49:43.030Z,18.20
2019-05-18T15:52:11.458Z,18.16
2019-05-18T15:54:39.843Z,18.16
2019-05-18T15:57:08.522Z,18.21
2019-05-18T15:59:37.001Z,18.19
2019-05-18T16:02:06.555Z,18.20
2019-05-18T16:04:35.604Z,18.18
2019-05-18T16:07:04.014Z,18.19
2019-05-18T16:09:32.669Z,18.23
2019-05-18T16:12:01.133Z,18.20
2019-05-18T16:14:29.629Z,18.23
2019-05-18T16:16:58.016Z,18.28
2019-05-18T16:19:26.403Z,18.29
2019-05-18T16:21:54.920Z,18.34
2019-05-18T16:24:23.302Z,18.29
2019-05-18T16:26:51.693Z,18.26
2019-05-18T16:29:20.496Z,18.25
2019-05-18T16:31:48.887Z,18.21
2019-05-18T16:34:17.277Z,18.24
2019-05-18T16:36:45.694Z,18.30
2019-05-18T16:39:14.088Z,18.30
2019-05-18T16:41:42.481Z,18.34
2019-05-18T16:44:11.192Z,18.36
2019-05-18T16:46:39.588Z,18.43
2019-05-18T16:49:07.983Z,18.48
2019-05-18T16:51:36.407Z,18.60
2019-05-18T16:54:04.812Z,18.68
2019-05-18T16:56:35.115Z,18.82
2019-05-18T16:59:03.734Z,18.99
2019-05-18T17:01:32.124Z,19.19
2019-05-18T17:04:00.527Z,19.33
2019-05-18T17:06:29.160Z,19.37
2019-05-18T17:08:57.621Z,19.34
2019-05-18T17:11:26.015Z,19.26
2019-05-18T17:13:54.425Z,19.17
2019-05-18T17:16:22.818Z,19.06
2019-05-18T17:18:51.217Z,19.02
2019-05-18T17:21:19.622Z,19.03
2019-05-18T17:23:48.061Z,19.05
2019-05-18T17:26:16.403Z,19.09
2019-05-18T17:28:45.379Z,19.12
2019-05-18T17:31:13.772Z,19.13
2019-05-18T17:33:42.161Z,19.11
2019-05-18T17:36:10.639Z,19.05
2019-05-18T17:38:38.978Z,18.92
2019-05-18T17:41:07.374Z,18.89
2019-05-18T17:43:35.805Z,18.70
2019-05-18T17:46:04.275Z,18.73
2019-05-18T17:48:32.691Z,18.53
2019-05-18T17:51:01.165Z,18.33
2019-05-18T17:53:29.583Z,18.12
2019-05-18T17:55:58.064Z,18.01
2019-05-18T17:58:26.567Z,17.89
2019-05-18T18:00:54.969Z,17.78
2019-05-18T18:03:23.362Z,17.70
2019-05-18T18:05:52.062Z,17.68
2019-05-18T18:08:20.524Z,17.65
2019-05-18T18:10:48.906Z,17.62
2019-05-18T18:13:17.346Z,17.56
2019-05-18T18:15:45.747Z,17.51
2019-05-18T18:18:14.143Z,17.46
2019-05-18T18:20:42.831Z,17.43
2019-05-18T18:23:11.242Z,17.43
2019-05-18T18:25:39.639Z,17.48
2019-05-18T18:28:08.053Z,17.48
2019-05-18T18:30:36.763Z,17.49
2019-05-18T18:33:05.153Z,17.44
2019-05-18T18:35:33.559Z,17.41
2019-05-18T18:38:01.989Z,17.34
2019-05-18T18:40:30.372Z,17.23
2019-05-18T18:42:58.784Z,17.09
2019-05-18T18:45:27.174Z,17.01
2019-05-18T18:47:55.570Z,16.95
2019-05-18T18:50:24.065Z,16.97
2019-05-18T18:52:52.461Z,17.02
2019-05-18T18:55:20.915Z,17.00
2019-05-18T18:57:49.527Z,16.95
2019-05-18T19:00:18.739Z,16.84
2019-05-18T19:02:47.132Z,16.73
2019-05-18T19:05:15.622Z,16.63
2019-05-18T19:07:44.042Z,16.51
2019-05-18T19:10:12.838Z,16.40
2019-05-18T19:12:41.264Z,16.30
2019-05-18T19:15:10.509Z,16.26
2019-05-18T19:17:38.886Z,16.18
2019-05-18T19:20:08.231Z,16.10
2019-05-18T19:22:36.688Z,16.03
2019-05-18T19:25:05.615Z,15.99
2019-05-18T19:27:34.392Z,15.93
2019-05-18T19:30:03.261Z,15.89
2019-05-18T19:32:31.739Z,15.86
2019-05-18T19:35:00.144Z,15.80
2019-05-18T19:37:28.538Z,15.77
2019-05-18T19:39:56.939Z,15.74
2019-05-18T19:42:25.921Z,15.62
2019-05-18T19:44:54.314Z,15.47
2019-05-18T19:47:22.706Z,15.31
2019-05-18T19:49:51.242Z,15.12
2019-05-18T19:52:19.630Z,14.92
2019-05-18T19:54:48.029Z,14.78
2019-05-18T19:57:16.449Z,14.63
2019-05-18T19:59:44.840Z,14.55
2019-05-18T20:02:13.657Z,14.48
2019-05-18T20:04:42.410Z,14.40
2019-05-18T20:07:10.805Z,14.37
2019-05-18T20:09:39.469Z,14.35
2019-05-18T20:12:07.885Z,14.34
2019-05-18T20:14:36.279Z,14.32
2019-05-18T20:17:04.718Z,14.32
2019-05-18T20:19:39.144Z,14.33
2019-05-18T20:22:03.254Z,14.32
2019-05-18T20:24:31.643Z,14.33
2019-05-18T20:27:00.318Z,14.41
2019-05-18T20:29:28.703Z,14.55
2019-05-18T20:31:57.090Z,14.68
2019-05-18T20:34:25.579Z,14.74
2019-05-18T20:36:53.968Z,14.77
2019-05-18T20:39:22.367Z,14.81
2019-05-18T20:41:50.851Z,14.79
2019-05-18T20:44:19.249Z,14.83
2019-05-18T20:46:47.640Z,14.87
2019-05-18T20:49:16.061Z,14.91
2019-05-18T20:51:44.451Z,14.94
2019-05-18T20:54:12.846Z,14.94
2019-05-18T20:56:41.255Z,14.95
2019-05-18T20:59:10.009Z,14.88
2019-05-18T21:01:38.399Z,14.82
2019-05-18T21:04:06.902Z,14.79
2019-05-18T21:06:35.293Z,14.73
2019-05-18T21:09:05.028Z,14.65
2019-05-18T21:11:33.527Z,14.57
2019-05-18T21:14:01.921Z,14.50
2019-05-18T21:16:30.310Z,14.47
2019-05-18T21:18:58.807Z,14.43
2019-05-18T21:21:27.255Z,14.37
2019-05-18T21:23:55.631Z,14.29
2019-05-18T21:26:24.046Z,14.24
2019-05-18T21:28:56.421Z,14.24
2019-05-18T21:31:22.915Z,14.22
2019-05-18T21:33:51.332Z,14.20
2019-05-18T21:36:19.733Z,14.20
2019-05-18T21:38:48.131Z,14.22
2019-05-18T21:41:16.565Z,14.25
2019-05-18T21:43:44.937Z,14.26
2019-05-18T21:46:13.326Z,14.28
2019-05-18T21:48:41.748Z,14.26
2019-05-18T21:51:10.147Z,14.22
2019-05-18T21:53:38.543Z,14.19
2019-05-18T21:56:07.047Z,14.13
2019-05-18T21:58:35.698Z,14.02
2019-05-18T22:01:04.925Z,13.86
2019-05-18T22:03:33.385Z,13.73
2019-05-18T22:06:01.773Z,13.68
2019-05-18T22:08:30.128Z,13.66
2019-05-18T22:10:58.608Z,13.66
2019-05-18T22:13:27.002Z,13.61
2019-05-18T22:15:55.380Z,13.52
2019-05-18T22:18:25.061Z,13.47
2019-05-18T22:20:53.526Z,13.43
2019-05-18T22:23:21.926Z,13.44
2019-05-18T22:25:50.338Z,13.46
2019-05-18T22:28:18.733Z,13.47
2019-05-18T22:30:47.130Z,13.49
2019-05-18T22:33:15.554Z,13.54
2019-05-18T22:35:44.227Z,13.57
2019-05-18T22:38:12.622Z,13.58
2019-05-18T22:40:41.032Z,13.59
2019-05-18T22:43:09.429Z,13.68
2019-05-18T22:45:37.820Z,13.80
2019-05-18T22:48:06.243Z,13.80
2019-05-18T22:50:34.640Z,13.79
2019-05-18T22:53:03.015Z,13.72
2019-05-18T22:55:31.431Z,13.63
2019-05-18T22:57:59.827Z,13.56
2019-05-18T23:00:28.225Z,13.46
2019-05-18T23:02:56.726Z,13.41
2019-05-18T23:05:25.110Z,13.38
2019-05-18T23:07:53.503Z,13.40
2019-05-18T23:10:21.999Z,13.46
2019-05-18T23:12:50.386Z,13.54
2019-05-18T23:15:19.146Z,13.63
2019-05-18T23:17:47.817Z,13.69
2019-05-18T23:20:16.306Z,13.73
2019-05-18T23:22:44.952Z,13.78
2019-05-18T23:25:13.578Z,13.79
2019-05-18T23:27:41.980Z,13.87
2019-05-18T23:30:11.223Z,13.93
2019-05-18T23:32:39.695Z,13.95
2019-05-18T23:35:08.234Z,13.93
2019-05-18T23:37:36.626Z,13.90
2019-05-18T23:40:06.184Z,13.86
2019-05-18T23:42:34.587Z,13.83
2019-05-18T23:45:03.134Z,13.80
2019-05-18T23:47:31.635Z,13.73
2019-05-18T23:50:00.031Z,13.71
2019-05-18T23:52:28.419Z,13.70
2019-05-18T23:54:56.841Z,13.67
2019-05-18T23:57:25.252Z,13.64
2019-05-18T23:59:53.633Z,13.68
